Time;durP1;ratioP1;P1;durP2;ratioP2;P2;SDS_P1;SDS_P2;PMS_P1;PMS_P2;Temp;Humidity;BMP_temperature;BMP_pressure;BME280_temperature;BME280_humidity;BME280_pressure;Samples;Min_cycle;Max_cycle;Signal;HPM_P1;HPM_P2
2021/06/26 00:01:24;;;;;;;20.85;15.23;;;17.40;99.90;;;;;;5018240;28;20017;-44
2021/06/26 00:03:50;;;;;;;21.95;15.77;;;17.50;99.90;;;;;;5033576;28;20029;-44
2021/06/26 00:06:16;;;;;;;18.20;14.48;;;17.50;99.90;;;;;;5014353;28;20026;-47
2021/06/26 00:08:41;;;;;;;20.02;15.65;;;17.40;99.90;;;;;;5014086;28;20049;-46
2021/06/26 00:11:07;;;;;;;21.52;16.63;;;17.40;99.90;;;;;;4997427;28;20022;-45
2021/06/26 00:13:32;;;;;;;21.70;17.65;;;17.50;99.90;;;;;;5017982;28;20026;-46
2021/06/26 00:15:58;;;;;;;19.73;17.40;;;17.40;99.90;;;;;;5024621;28;20030;-47
2021/06/26 00:18:24;;;;;;;25.98;18.00;;;17.40;99.90;;;;;;5027927;28;20034;-49
2021/06/26 00:20:49;;;;;;;27.67;19.23;;;17.40;99.90;;;;;;5009565;28;20116;-46
2021/06/26 00:23:15;;;;;;;24.15;19.63;;;17.30;99.90;;;;;;5016445;28;20032;-47
2021/06/26 00:25:41;;;;;;;27.52;19.50;;;17.20;99.90;;;;;;5015344;28;20034;-44
2021/06/26 00:28:06;;;;;;;27.30;20.42;;;17.20;99.90;;;;;;5014430;28;20030;-45
2021/06/26 00:30:32;;;;;;;23.38;19.92;;;17.10;99.90;;;;;;5014767;28;20389;-44
2021/06/26 00:32:57;;;;;;;22.20;19.42;;;17.10;99.90;;;;;;5014483;28;20477;-44
2021/06/26 00:35:23;;;;;;;26.13;21.10;;;17.00;99.90;;;;;;5013553;28;20058;-47
2021/06/26 00:37:49;;;;;;;27.67;20.90;;;17.00;99.90;;;;;;5013891;28;20481;-44
2021/06/26 00:40:15;;;;;;;30.83;20.92;;;17.00;99.90;;;;;;5013806;28;20397;-49
2021/06/26 00:42:42;;;;;;;31.70;20.55;;;17.00;99.90;;;;;;5013689;28;20022;-49
2021/06/26 00:45:10;;;;;;;24.55;20.65;;;17.00;99.90;;;;;;5013021;28;20034;-45
2021/06/26 00:47:36;;;;;;;27.23;21.92;;;16.90;99.90;;;;;;5013590;28;20167;-49
2021/06/26 00:50:04;;;;;;;27.50;20.85;;;17.00;99.90;;;;;;5014043;28;20026;-44
2021/06/26 00:52:29;;;;;;;33.03;21.50;;;17.00;99.90;;;;;;4995819;28;20022;-46
2021/06/26 00:54:55;;;;;;;25.83;21.35;;;16.90;99.90;;;;;;5012772;28;20041;-44
2021/06/26 00:57:22;;;;;;;26.90;22.20;;;16.80;99.90;;;;;;5013636;28;20065;-49
2021/06/26 00:59:48;;;;;;;26.80;21.40;;;16.80;99.90;;;;;;5013576;28;20048;-52
2021/06/26 01:02:14;;;;;;;28.17;20.15;;;16.70;99.90;;;;;;5013286;28;20032;-48
2021/06/26 01:04:40;;;;;;;27.35;21.55;;;16.70;99.90;;;;;;5012770;28;20113;-50
2021/06/26 01:07:06;;;;;;;25.05;20.45;;;16.70;99.90;;;;;;5013067;28;20030;-47
2021/06/26 01:09:31;;;;;;;26.00;20.27;;;16.70;99.90;;;;;;5013027;28;20118;-48
2021/06/26 01:11:57;;;;;;;21.95;19.58;;;16.60;99.90;;;;;;5013172;28;20101;-50
2021/06/26 01:14:28;;;;;;;25.17;19.38;;;16.60;99.90;;;;;;5012238;28;20030;-45
2021/06/26 01:16:54;;;;;;;27.52;20.00;;;16.60;99.90;;;;;;5013050;28;20029;-48
2021/06/26 01:19:20;;;;;;;23.83;18.75;;;16.60;99.90;;;;;;5013317;28;20033;-50
2021/06/26 01:21:45;;;;;;;24.40;20.20;;;16.60;99.90;;;;;;5013143;28;20069;-49
2021/06/26 01:24:11;;;;;;;34.55;21.83;;;16.60;99.90;;;;;;5012374;28;20025;-47
2021/06/26 01:26:37;;;;;;;28.17;22.13;;;16.60;99.90;;;;;;5012846;28;20026;-47
2021/06/26 01:29:12;;;;;;;43.35;22.35;;;16.60;99.90;;;;;;5012995;28;20113;-46
2021/06/26 01:31:39;;;;;;;26.42;21.65;;;16.60;99.90;;;;;;5012883;28;20488;-49
2021/06/26 01:34:05;;;;;;;38.65;22.70;;;16.60;99.90;;;;;;5012307;28;20021;-46
2021/06/26 01:36:30;;;;;;;37.70;24.55;;;16.60;99.90;;;;;;5012509;28;20393;-50
2021/06/26 01:38:57;;;;;;;27.45;21.90;;;16.50;99.90;;;;;;5012658;28;20022;-45
2021/06/26 01:41:24;;;;;;;28.73;22.13;;;16.50;99.90;;;;;;5012655;28;20149;-48
2021/06/26 01:43:50;;;;;;;23.90;19.70;;;16.50;99.90;;;;;;5011849;28;20030;-43
2021/06/26 01:46:16;;;;;;;24.92;20.33;;;16.50;99.90;;;;;;5011531;28;20037;-44
2021/06/26 01:48:41;;;;;;;31.08;22.00;;;16.50;99.90;;;;;;5012453;28;20497;-46
2021/06/26 01:51:07;;;;;;;20.27;18.10;;;16.60;99.90;;;;;;5012562;28;20097;-46
2021/06/26 01:53:32;;;;;;;22.55;17.45;;;16.50;99.90;;;;;;5011773;28;20481;-50
2021/06/26 01:55:58;;;;;;;26.90;20.52;;;16.50;99.90;;;;;;4994981;28;20494;-48
2021/06/26 01:58:24;;;;;;;25.55;20.27;;;16.50;99.90;;;;;;5012445;28;20031;-46
2021/06/26 02:00:50;;;;;;;24.52;18.25;;;16.50;99.90;;;;;;5012449;28;20108;-44
2021/06/26 02:03:15;;;;;;;26.40;18.63;;;16.50;99.90;;;;;;5012404;28;20168;-43
2021/06/26 02:05:41;;;;;;;22.80;18.65;;;16.50;99.90;;;;;;5013095;28;20034;-45
2021/06/26 02:08:06;;;;;;;32.70;22.42;;;16.50;99.90;;;;;;5012147;28;20479;-51
2021/06/26 02:10:32;;;;;;;28.88;21.88;;;16.50;99.90;;;;;;5012056;28;20018;-45
2021/06/26 02:12:58;;;;;;;29.45;21.40;;;16.50;99.90;;;;;;5012023;28;20057;-44
2021/06/26 02:15:24;;;;;;;32.60;22.35;;;16.50;99.90;;;;;;5011745;28;20046;-48
2021/06/26 02:17:49;;;;;;;38.42;21.98;;;16.50;99.90;;;;;;5011950;28;20026;-44
2021/06/26 02:20:15;;;;;;;27.15;21.30;;;16.50;99.90;;;;;;5009369;28;20030;-49
2021/06/26 02:22:42;;;;;;;25.77;21.17;;;16.50;99.90;;;;;;5011833;28;20045;-44
2021/06/26 02:25:09;;;;;;;26.90;22.25;;;16.50;99.90;;;;;;5011170;28;20034;-45
2021/06/26 02:27:34;;;;;;;27.77;22.10;;;16.50;99.90;;;;;;5011853;28;20559;-43
2021/06/26 02:30:00;;;;;;;30.33;22.67;;;16.50;99.90;;;;;;4994252;28;20037;-43
2021/06/26 02:32:26;;;;;;;25.75;20.55;;;16.60;99.90;;;;;;5012094;28;20049;-44
2021/06/26 02:34:53;;;;;;;20.27;17.67;;;16.50;99.90;;;;;;5011109;28;20022;-47
2021/06/26 02:37:19;;;;;;;23.05;18.52;;;16.40;99.90;;;;;;5011659;28;20033;-48
2021/06/26 02:39:45;;;;;;;21.10;16.38;;;16.40;99.90;;;;;;5011758;28;20286;-45
2021/06/26 02:42:10;;;;;;;23.02;18.05;;;16.30;99.90;;;;;;5011806;28;20033;-45
2021/06/26 02:44:36;;;;;;;26.92;18.63;;;16.30;99.90;;;;;;4993117;28;20018;-46
2021/06/26 02:47:01;;;;;;;20.95;16.90;;;16.30;99.90;;;;;;5011757;28;20038;-50
2021/06/26 02:49:27;;;;;;;19.63;17.55;;;16.30;99.90;;;;;;5011655;28;20077;-46
2021/06/26 02:51:53;;;;;;;21.05;18.08;;;16.30;99.90;;;;;;5011535;28;20034;-46
2021/06/26 02:54:18;;;;;;;22.17;18.40;;;16.30;99.90;;;;;;5010522;28;20507;-45
2021/06/26 02:56:44;;;;;;;25.08;19.42;;;16.30;99.90;;;;;;5011119;28;20033;-51
2021/06/26 02:59:09;;;;;;;23.52;18.95;;;16.30;99.90;;;;;;5011125;28;20034;-47
2021/06/26 03:01:35;;;;;;;21.30;17.25;;;16.20;99.90;;;;;;5011255;28;20439;-44
2021/06/26 03:04:01;;;;;;;24.50;18.77;;;16.20;99.90;;;;;;5010570;28;20072;-43
2021/06/26 03:06:26;;;;;;;25.73;20.02;;;16.20;99.90;;;;;;5010935;28;20025;-47
2021/06/26 03:08:52;;;;;;;26.52;19.13;;;16.20;99.90;;;;;;5010968;28;20033;-50
2021/06/26 03:11:17;;;;;;;26.50;19.25;;;16.20;99.90;;;;;;4993235;28;20030;-46
2021/06/26 03:13:43;;;;;;;20.83;17.83;;;16.20;99.90;;;;;;5010474;28;20041;-45
2021/06/26 03:16:09;;;;;;;19.58;16.73;;;16.20;99.90;;;;;;5010873;28;20068;-44
2021/06/26 03:18:35;;;;;;;20.80;18.48;;;16.10;99.90;;;;;;5010742;28;20042;-49
2021/06/26 03:21:00;;;;;;;19.35;16.13;;;16.10;99.90;;;;;;5010917;28;20037;-48
2021/06/26 03:23:26;;;;;;;24.48;17.55;;;16.10;99.90;;;;;;5010155;28;20542;-47
2021/06/26 03:25:51;;;;;;;23.30;17.73;;;16.10;99.90;;;;;;5010688;28;20420;-44
2021/06/26 03:28:17;;;;;;;20.85;18.40;;;16.10;99.90;;;;;;5011422;28;20499;-47
2021/06/26 03:30:43;;;;;;;26.42;18.90;;;16.10;99.90;;;;;;5010716;28;20083;-48
2021/06/26 03:33:09;;;;;;;20.83;18.23;;;16.10;99.90;;;;;;5010744;28;20384;-45
2021/06/26 03:35:34;;;;;;;22.05;17.38;;;16.00;99.90;;;;;;5010255;28;20028;-50
2021/06/26 03:38:00;;;;;;;22.65;17.67;;;16.10;99.90;;;;;;5010670;28;20030;-44
2021/06/26 03:40:25;;;;;;;20.95;16.70;;;16.00;99.90;;;;;;5010631;28;20313;-43
2021/06/26 03:42:51;;;;;;;16.92;15.13;;;16.00;99.90;;;;;;5010793;28;20034;-45
2021/06/26 03:45:16;;;;;;;17.98;15.43;;;16.10;99.90;;;;;;4990530;28;20493;-49
2021/06/26 03:47:42;;;;;;;17.48;15.65;;;16.00;99.90;;;;;;5010461;28;20520;-44
2021/06/26 03:50:09;;;;;;;22.23;16.77;;;16.00;99.90;;;;;;5010986;28;20022;-44
2021/06/26 03:52:34;;;;;;;22.98;17.00;;;16.00;99.90;;;;;;5010391;28;20401;-46
2021/06/26 03:55:00;;;;;;;29.33;18.02;;;16.00;99.90;;;;;;5009519;28;20033;-44
2021/06/26 03:57:25;;;;;;;22.20;16.90;;;16.00;99.90;;;;;;5010464;28;20037;-45
2021/06/26 03:59:51;;;;;;;20.17;17.00;;;16.00;99.90;;;;;;5010397;28;20547;-47
2021/06/26 04:02:17;;;;;;;21.08;17.02;;;16.10;99.90;;;;;;5010378;28;20096;-45
2021/06/26 04:04:42;;;;;;;23.80;17.23;;;16.10;99.90;;;;;;4991996;28;20026;-44
2021/06/26 04:07:08;;;;;;;20.23;17.00;;;16.10;99.90;;;;;;5010350;28;20061;-48
2021/06/26 04:09:33;;;;;;;18.83;16.63;;;16.10;99.90;;;;;;5010292;28;20484;-48
2021/06/26 04:11:59;;;;;;;20.42;17.00;;;16.10;99.90;;;;;;5010379;28;20025;-44
2021/06/26 04:14:24;;;;;;;22.20;16.83;;;16.10;99.90;;;;;;5009569;28;20100;-44
2021/06/26 04:16:50;;;;;;;23.25;17.17;;;16.20;99.90;;;;;;5010470;28;20089;-46
2021/06/26 04:19:16;;;;;;;22.23;17.77;;;16.20;99.90;;;;;;5010336;28;20022;-48
2021/06/26 04:21:42;;;;;;;20.67;16.00;;;16.20;99.90;;;;;;5008509;28;20025;-48
2021/06/26 04:24:08;;;;;;;22.20;15.57;;;16.20;99.90;;;;;;4991847;28;20180;-47
2021/06/26 04:26:34;;;;;;;20.77;16.95;;;16.20;99.90;;;;;;5010106;28;20080;-50
2021/06/26 04:28:59;;;;;;;19.92;16.08;;;16.20;99.90;;;;;;5009944;28;20116;-49
2021/06/26 04:31:25;;;;;;;18.25;16.25;;;16.30;99.90;;;;;;4992507;28;20029;-44
2021/06/26 04:33:50;;;;;;;21.70;16.33;;;16.30;99.90;;;;;;5009477;28;20429;-44
2021/06/26 04:36:16;;;;;;;16.52;14.80;;;16.30;99.90;;;;;;4992450;28;20034;-46
2021/06/26 04:38:42;;;;;;;17.20;15.38;;;16.40;99.90;;;;;;5010017;28;20428;-50
2021/06/26 04:41:08;;;;;;;22.27;15.52;;;16.50;99.90;;;;;;5009922;28;20075;-44
2021/06/26 04:43:34;;;;;;;17.80;15.43;;;16.50;99.90;;;;;;5009906;28;20531;-46
2021/06/26 04:46:00;;;;;;;17.00;15.10;;;16.50;99.90;;;;;;5013502;28;20134;-46
2021/06/26 04:48:28;;;;;;;22.38;15.32;;;16.60;99.90;;;;;;5013490;28;20105;-43
2021/06/26 04:50:54;;;;;;;27.63;16.17;;;16.60;99.90;;;;;;5013508;28;20026;-46
2021/06/26 04:53:19;;;;;;;16.92;14.32;;;16.60;99.90;;;;;;5013345;28;20376;-47
2021/06/26 04:55:51;;;;;;;15.23;13.70;;;16.60;99.90;;;;;;5013314;28;20033;-45
2021/06/26 04:58:28;;;;;;;17.23;14.88;;;16.70;99.90;;;;;;5013596;28;20118;-45
2021/06/26 05:00:55;;;;;;;16.55;13.73;;;16.70;99.90;;;;;;5013796;28;20026;-44
2021/06/26 05:03:22;;;;;;;16.90;13.65;;;16.80;99.90;;;;;;5013006;28;20025;-45
2021/06/26 05:05:49;;;;;;;17.52;14.88;;;16.80;99.90;;;;;;5013385;28;20412;-47
2021/06/26 05:08:15;;;;;;;17.13;13.98;;;16.90;99.90;;;;;;4995588;28;20057;-47
2021/06/26 05:10:41;;;;;;;18.45;14.55;;;17.00;99.90;;;;;;5013674;28;20384;-44
2021/06/26 05:13:07;;;;;;;15.45;13.52;;;17.00;99.90;;;;;;5013330;28;20057;-45
2021/06/26 05:15:33;;;;;;;20.48;14.73;;;17.10;99.90;;;;;;5034998;23;20056;-48
2021/06/26 05:17:59;;;;;;;17.95;14.60;;;17.10;99.90;;;;;;5033345;28;20033;-52
2021/06/26 05:20:25;;;;;;;19.77;16.10;;;17.20;99.90;;;;;;5015018;28;20034;-50
2021/06/26 05:22:50;;;;;;;29.65;16.65;;;17.20;99.90;;;;;;5032744;28;20029;-51
2021/06/26 05:25:16;;;;;;;20.35;15.02;;;17.30;99.90;;;;;;5014139;28;20021;-50
2021/06/26 05:27:42;;;;;;;17.55;15.52;;;17.30;99.90;;;;;;5014892;28;20037;-52
2021/06/26 05:30:09;;;;;;;21.65;15.88;;;17.40;99.90;;;;;;5032469;28;20048;-51
2021/06/26 05:32:34;;;;;;;16.58;14.65;;;17.60;99.90;;;;;;5032909;28;20029;-51
2021/06/26 05:35:00;;;;;;;21.55;15.05;;;17.90;99.90;;;;;;5031746;28;20091;-48
2021/06/26 05:37:25;;;;;;;19.15;15.38;;;17.80;99.90;;;;;;5014591;28;20033;-50
2021/06/26 05:39:51;;;;;;;23.83;16.80;;;17.80;99.90;;;;;;5032486;28;20029;-51
2021/06/26 05:42:16;;;;;;;18.67;15.40;;;18.00;99.90;;;;;;5032283;28;20029;-49
2021/06/26 05:44:42;;;;;;;22.65;16.45;;;18.00;99.90;;;;;;5031401;28;20451;-49
2021/06/26 05:47:08;;;;;;;25.08;16.17;;;18.00;99.90;;;;;;5030495;28;20033;-50
2021/06/26 05:49:33;;;;;;;17.70;14.60;;;18.10;99.90;;;;;;5032180;28;20018;-50
2021/06/26 05:51:59;;;;;;;20.60;13.82;;;18.10;99.90;;;;;;5032531;28;20048;-51
2021/06/26 05:54:25;;;;;;;17.45;15.07;;;18.30;99.90;;;;;;5031165;28;20049;-52
2021/06/26 05:56:50;;;;;;;15.43;13.80;;;18.50;99.90;;;;;;5024466;28;20103;-51
2021/06/26 05:59:16;;;;;;;16.77;14.75;;;18.50;99.90;;;;;;5039824;28;20455;-49
2021/06/26 06:01:41;;;;;;;16.73;14.73;;;18.40;99.90;;;;;;5032264;28;20044;-49
2021/06/26 06:04:08;;;;;;;17.60;14.93;;;18.40;99.90;;;;;;5029186;28;20033;-51
2021/06/26 06:06:34;;;;;;;15.20;13.57;;;18.50;99.90;;;;;;5028211;28;20037;-48
2021/06/26 06:08:59;;;;;;;18.30;15.65;;;18.60;99.90;;;;;;5015402;28;20595;-49
2021/06/26 06:11:25;;;;;;;20.52;14.95;;;18.60;99.90;;;;;;5015753;28;20037;-51
2021/06/26 06:13:50;;;;;;;20.80;15.55;;;18.70;99.90;;;;;;5011504;28;20404;-49
2021/06/26 06:16:17;;;;;;;17.60;15.80;;;18.80;99.90;;;;;;5024329;28;20412;-54
2021/06/26 06:18:44;;;;;;;19.70;16.30;;;18.90;99.90;;;;;;5031113;28;20393;-53
2021/06/26 06:21:09;;;;;;;17.10;14.52;;;18.90;99.90;;;;;;5029272;28;20419;-52
2021/06/26 06:23:35;;;;;;;22.73;16.60;;;18.90;99.90;;;;;;5013674;28;20026;-53
2021/06/26 06:26:01;;;;;;;20.40;13.25;;;19.00;99.90;;;;;;5018795;28;20366;-51
2021/06/26 06:28:27;;;;;;;17.17;14.38;;;19.10;99.90;;;;;;5012533;28;20030;-49
2021/06/26 06:30:52;;;;;;;19.65;15.52;;;19.20;99.90;;;;;;5029267;28;20061;-52
2021/06/26 06:33:20;;;;;;;21.55;15.45;;;19.20;99.90;;;;;;5023100;28;20021;-49
2021/06/26 06:35:46;;;;;;;15.70;12.85;;;19.30;99.90;;;;;;5026037;28;20026;-49
2021/06/26 06:38:13;;;;;;;19.15;13.95;;;19.50;99.90;;;;;;5025827;28;20542;-54
2021/06/26 06:40:38;;;;;;;20.92;15.65;;;19.60;99.90;;;;;;5031533;28;20025;-52
2021/06/26 06:43:04;;;;;;;21.00;15.05;;;19.70;99.90;;;;;;5031199;28;20029;-52
2021/06/26 06:45:29;;;;;;;17.25;15.13;;;19.80;99.90;;;;;;5029428;28;20029;-52
2021/06/26 06:47:55;;;;;;;17.50;15.07;;;19.70;99.90;;;;;;5031011;28;20432;-53
2021/06/26 06:50:20;;;;;;;18.63;14.30;;;19.70;99.90;;;;;;5031735;28;20476;-52
2021/06/26 06:52:46;;;;;;;18.67;14.90;;;19.70;99.90;;;;;;5013301;28;20025;-53
2021/06/26 06:55:12;;;;;;;24.65;14.07;;;19.70;99.90;;;;;;5012749;28;20029;-56
2021/06/26 06:57:37;;;;;;;14.18;12.68;;;19.60;99.90;;;;;;5031098;28;20025;-52
2021/06/26 07:00:06;;;;;;;17.35;14.52;;;19.60;99.90;;;;;;5031224;28;20026;-53
2021/06/26 07:02:31;;;;;;;17.42;15.45;;;19.70;99.90;;;;;;5030983;28;20021;-51
2021/06/26 07:04:57;;;;;;;24.30;15.05;;;19.90;99.90;;;;;;5031892;28;20029;-51
2021/06/26 07:07:22;;;;;;;22.70;16.73;;;20.00;99.90;;;;;;5030708;28;20503;-56
2021/06/26 07:09:48;;;;;;;17.27;14.90;;;19.90;99.90;;;;;;5030850;28;20021;-54
2021/06/26 07:12:13;;;;;;;17.40;14.85;;;19.90;99.90;;;;;;5030769;28;20364;-53
2021/06/26 07:14:39;;;;;;;20.55;14.05;;;20.10;99.90;;;;;;5029933;28;20028;-52
2021/06/26 07:17:04;;;;;;;14.15;12.38;;;20.00;99.90;;;;;;5030529;28;20064;-53
2021/06/26 07:19:30;;;;;;;15.13;13.10;;;19.90;99.90;;;;;;5030697;28;20060;-53
2021/06/26 07:21:56;;;;;;;15.35;13.75;;;20.00;99.90;;;;;;5029629;28;20312;-54
2021/06/26 07:24:21;;;;;;;17.75;14.60;;;20.00;99.90;;;;;;5029780;28;20025;-53
2021/06/26 07:26:47;;;;;;;18.55;15.05;;;20.10;99.90;;;;;;5030195;28;20021;-51
2021/06/26 07:29:12;;;;;;;23.63;14.02;;;20.20;99.90;;;;;;5012068;28;20125;-56
2021/06/26 07:31:38;;;;;;;20.27;14.48;;;20.20;99.90;;;;;;5023606;28;20440;-50
2021/06/26 07:34:04;;;;;;;18.70;13.57;;;20.30;99.90;;;;;;5032886;28;20026;-46
2021/06/26 07:36:30;;;;;;;18.90;12.30;;;20.20;99.90;;;;;;5018242;28;20108;-49
2021/06/26 07:38:55;;;;;;;15.73;13.60;;;20.30;99.90;;;;;;5010544;28;20036;-51
2021/06/26 07:41:22;;;;;;;15.10;12.52;;;20.40;99.90;;;;;;5019790;28;20119;-49
2021/06/26 07:43:48;;;;;;;16.00;11.38;;;20.50;99.90;;;;;;5021778;28;20026;-50
2021/06/26 07:46:15;;;;;;;14.13;11.35;;;20.80;99.90;;;;;;5010445;28;20021;-62
2021/06/26 07:48:40;;;;;;;15.93;11.35;;;21.30;99.90;;;;;;5014581;28;20417;-54
2021/06/26 07:51:06;;;;;;;19.55;13.10;;;21.90;99.90;;;;;;5021696;28;20075;-54
2021/06/26 07:53:31;;;;;;;11.85;9.23;;;22.50;99.90;;;;;;5029417;28;20048;-55
2021/06/26 07:55:57;;;;;;;8.40;7.45;;;23.40;96.20;;;;;;5012000;28;20040;-52
2021/06/26 07:58:25;;;;;;;8.13;6.50;;;24.30;94.50;;;;;;5010242;28;20022;-51
2021/06/26 08:00:52;;;;;;;6.65;5.45;;;25.10;92.60;;;;;;5027003;28;20033;-52
2021/06/26 08:03:19;;;;;;;8.50;5.90;;;26.20;91.10;;;;;;5049462;28;20120;-55
2021/06/26 08:05:45;;;;;;;8.15;6.38;;;27.60;87.60;;;;;;5049505;28;20033;-50
2021/06/26 08:08:11;;;;;;;9.07;4.95;;;28.90;84.70;;;;;;5029248;28;20529;-49
2021/06/26 08:10:37;;;;;;;7.40;5.00;;;29.80;80.70;;;;;;5021606;28;20104;-51
2021/06/26 08:13:03;;;;;;;5.00;4.50;;;30.40;75.00;;;;;;5022160;28;20539;-53
2021/06/26 08:15:30;;;;;;;4.65;4.25;;;30.50;72.10;;;;;;5009234;28;20509;-50
2021/06/26 08:17:55;;;;;;;10.75;5.45;;;30.70;71.80;;;;;;5019832;28;20049;-50
2021/06/26 08:20:22;;;;;;;5.32;4.70;;;30.80;69.70;;;;;;5033401;28;20064;-50
2021/06/26 08:22:48;;;;;;;7.47;4.32;;;30.70;69.40;;;;;;5021068;28;20034;-53
2021/06/26 08:25:13;;;;;;;5.32;4.75;;;30.40;67.60;;;;;;5013069;28;20030;-49
2021/06/26 08:27:39;;;;;;;5.07;4.50;;;30.10;68.20;;;;;;5014603;28;20409;-47
2021/06/26 08:30:05;;;;;;;6.60;5.35;;;29.40;69.10;;;;;;5013775;28;20038;-47
2021/06/26 08:32:31;;;;;;;9.82;6.72;;;29.10;70.30;;;;;;5029538;28;20037;-51
2021/06/26 08:34:56;;;;;;;6.35;5.70;;;28.70;70.60;;;;;;5026215;28;20033;-49
2021/06/26 08:37:22;;;;;;;13.45;5.13;;;28.20;71.90;;;;;;5014746;28;20432;-48
2021/06/26 08:39:47;;;;;;;6.00;5.40;;;27.80;73.00;;;;;;5022094;28;20030;-48
2021/06/26 08:42:14;;;;;;;5.30;4.78;;;27.50;72.20;;;;;;5008347;28;20028;-47
2021/06/26 08:44:42;;;;;;;4.90;4.45;;;27.10;75.20;;;;;;5028111;28;20074;-47
2021/06/26 08:47:08;;;;;;;5.45;4.95;;;27.00;71.40;;;;;;5023454;28;20113;-50
2021/06/26 08:49:33;;;;;;;7.05;5.95;;;26.80;72.40;;;;;;5013395;28;20076;-51
2021/06/26 08:51:59;;;;;;;6.43;5.70;;;26.70;74.00;;;;;;5014494;28;20065;-48
2021/06/26 08:54:24;;;;;;;10.10;6.90;;;26.60;75.00;;;;;;5012773;28;20037;-51
2021/06/26 08:56:50;;;;;;;11.50;7.50;;;26.50;76.30;;;;;;5019090;28;20388;-50
2021/06/26 08:59:16;;;;;;;8.50;6.20;;;26.50;76.00;;;;;;5015338;28;20532;-46
2021/06/26 09:01:44;;;;;;;6.45;5.68;;;26.40;77.00;;;;;;5031553;28;20049;-49
2021/06/26 09:04:18;;;;;;;7.75;5.57;;;26.30;77.60;;;;;;5032428;28;20112;-49
2021/06/26 09:06:47;;;;;;;6.65;5.57;;;26.10;79.30;;;;;;5027647;28;20492;-47
2021/06/26 09:09:13;;;;;;;6.47;5.60;;;26.10;80.70;;;;;;5013063;28;20030;-52
2021/06/26 09:11:38;;;;;;;5.90;5.22;;;26.00;76.30;;;;;;5014103;28;20022;-48
2021/06/26 09:14:15;;;;;;;8.50;4.65;;;26.00;78.00;;;;;;5015802;28;20049;-50
2021/06/26 09:16:49;;;;;;;6.63;4.88;;;25.90;76.40;;;;;;5023647;28;20033;-51
2021/06/26 09:19:15;;;;;;;9.65;4.13;;;26.00;78.70;;;;;;5027379;28;20029;-50
2021/06/26 09:21:42;;;;;;;8.15;5.45;;;26.10;78.50;;;;;;5017465;28;20381;-50
2021/06/26 09:24:10;;;;;;;5.55;5.05;;;26.10;76.30;;;;;;5014751;28;20029;-50
2021/06/26 09:26:37;;;;;;;5.13;4.53;;;26.20;76.10;;;;;;5026252;28;20030;-47
2021/06/26 09:29:14;;;;;;;5.95;4.30;;;26.30;75.70;;;;;;5014013;28;20037;-51
2021/06/26 09:31:54;;;;;;;11.82;9.30;;;26.30;75.00;;;;;;5030771;28;20018;-49
2021/06/26 09:34:22;;;;;;;17.15;9.82;;;26.20;73.20;;;;;;5031807;28;20052;-51
2021/06/26 09:37:00;;;;;;;3.85;3.47;;;26.20;72.50;;;;;;5030499;28;20025;-51
2021/06/26 09:39:39;;;;;;;9.32;4.40;;;26.10;72.50;;;;;;5028975;28;20104;-48
2021/06/26 09:42:18;;;;;;;5.07;4.13;;;26.20;73.00;;;;;;5028067;28;20064;-49
2021/06/26 09:44:59;;;;;;;4.85;3.53;;;26.20;73.60;;;;;;5011731;28;20439;-51
2021/06/26 09:47:32;;;;;;;4.38;3.60;;;26.00;71.70;;;;;;5018279;28;20061;-52
2021/06/26 09:50:16;;;;;;;6.60;3.88;;;25.80;71.30;;;;;;5032218;28;20396;-55
2021/06/26 09:52:57;;;;;;;7.75;3.90;;;25.70;74.00;;;;;;4994714;28;20037;-51
2021/06/26 09:55:33;;;;;;;7.38;3.58;;;25.60;76.50;;;;;;5013087;28;20049;-54
2021/06/26 09:58:00;;;;;;;3.58;3.05;;;25.70;74.50;;;;;;5031899;28;20022;-51
2021/06/26 10:00:28;;;;;;;3.42;3.10;;;25.80;74.40;;;;;;5030257;28;20079;-49
2021/06/26 10:02:55;;;;;;;4.50;3.30;;;25.80;75.10;;;;;;5031889;28;20026;-50
2021/06/26 10:05:21;;;;;;;3.45;3.15;;;25.90;73.80;;;;;;5025285;28;20026;-47
2021/06/26 10:07:48;;;;;;;3.35;2.97;;;25.80;74.90;;;;;;5025162;28;20393;-48
2021/06/26 10:10:17;;;;;;;4.07;3.10;;;25.70;71.80;;;;;;5031851;28;20055;-50
2021/06/26 10:12:42;;;;;;;4.10;3.47;;;25.70;72.40;;;;;;5030892;28;20056;-49
2021/06/26 10:15:10;;;;;;;7.05;5.30;;;25.80;72.80;;;;;;5030832;28;20022;-49
2021/06/26 10:17:36;;;;;;;3.45;3.17;;;25.80;74.00;;;;;;5012324;28;20044;-51
2021/06/26 10:20:09;;;;;;;5.57;3.47;;;25.80;71.10;;;;;;5014036;28;20029;-48
2021/06/26 10:22:40;;;;;;;5.75;3.17;;;25.80;71.70;;;;;;5026864;28;20137;-51
2021/06/26 10:25:07;;;;;;;4.68;2.83;;;25.50;69.70;;;;;;5026713;28;20068;-49
2021/06/26 10:27:33;;;;;;;11.43;3.15;;;25.40;71.30;;;;;;5023801;28;20137;-47
2021/06/26 10:30:09;;;;;;;3.55;3.10;;;25.50;69.90;;;;;;5011682;28;20097;-48
2021/06/26 10:32:35;;;;;;;7.13;3.20;;;25.30;71.00;;;;;;5018486;28;20381;-49
2021/06/26 10:35:12;;;;;;;2.70;2.50;;;25.40;71.60;;;;;;5030465;28;20025;-48
2021/06/26 10:37:38;;;;;;;3.25;3.05;;;25.50;72.10;;;;;;5029590;28;20037;-50
2021/06/26 10:40:08;;;;;;;2.95;2.40;;;25.50;71.40;;;;;;5029488;28;20033;-47
2021/06/26 10:42:36;;;;;;;3.05;2.80;;;25.60;73.60;;;;;;5023763;28;20069;-54
2021/06/26 10:45:05;;;;;;;3.05;2.85;;;25.50;73.80;;;;;;5010699;28;20433;-51
2021/06/26 10:47:36;;;;;;;3.42;3.00;;;25.50;74.60;;;;;;5014833;28;20518;-50
2021/06/26 10:50:12;;;;;;;3.80;2.88;;;25.50;72.80;;;;;;5031049;28;20158;-47
2021/06/26 10:52:51;;;;;;;2.70;2.50;;;25.40;74.40;;;;;;5024905;28;20088;-46
2021/06/26 10:55:31;;;;;;;3.55;2.85;;;25.30;73.00;;;;;;5010450;28;20026;-47
2021/06/26 10:57:57;;;;;;;4.60;2.60;;;25.20;72.80;;;;;;5012379;28;20030;-47
2021/06/26 11:00:40;;;;;;;7.35;3.40;;;25.20;73.10;;;;;;5011098;28;20038;-49
2021/06/26 11:03:17;;;;;;;4.85;3.10;;;25.20;75.60;;;;;;4999912;28;20408;-52
2021/06/26 11:05:44;;;;;;;3.42;3.13;;;25.00;76.70;;;;;;5030411;28;20033;-51
2021/06/26 11:08:21;;;;;;;3.85;3.05;;;25.00;74.40;;;;;;5022883;28;20128;-52
2021/06/26 11:10:58;;;;;;;3.33;3.13;;;25.00;75.10;;;;;;5017604;28;20040;-52
2021/06/26 11:13:27;;;;;;;3.42;3.13;;;24.90;76.00;;;;;;5030223;28;20033;-52
2021/06/26 11:16:07;;;;;;;6.20;3.72;;;24.80;75.50;;;;;;5031710;28;20040;-50
2021/06/26 11:18:33;;;;;;;4.32;3.42;;;24.80;76.80;;;;;;5029049;28;20029;-51
2021/06/26 11:21:00;;;;;;;49.30;36.53;;;24.80;78.20;;;;;;5030903;28;20067;-53
2021/06/26 11:23:26;;;;;;;9.68;5.03;;;24.80;78.90;;;;;;5029945;28;20034;-50
2021/06/26 11:25:59;;;;;;;3.42;3.13;;;24.80;79.30;;;;;;5030557;28;20104;-51
2021/06/26 11:28:24;;;;;;;4.40;3.20;;;24.90;78.30;;;;;;5030515;28;20071;-49
2021/06/26 11:31:01;;;;;;;5.38;3.33;;;24.90;79.00;;;;;;5030428;28;20026;-48
2021/06/26 11:33:40;;;;;;;3.03;2.75;;;24.90;78.50;;;;;;5030171;28;20021;-50
2021/06/26 11:36:10;;;;;;;4.57;3.67;;;24.90;79.60;;;;;;5030917;28;20017;-51
2021/06/26 11:38:36;;;;;;;3.63;3.25;;;24.90;79.20;;;;;;5030450;28;20115;-49
2021/06/26 11:41:07;;;;;;;4.00;3.63;;;25.00;79.20;;;;;;5030158;28;20103;-47
2021/06/26 11:43:34;;;;;;;4.45;3.30;;;25.00;78.00;;;;;;5029704;28;20108;-48
2021/06/26 11:46:04;;;;;;;4.60;3.28;;;25.10;77.30;;;;;;5030046;28;20029;-50
2021/06/26 11:48:30;;;;;;;4.22;3.83;;;25.20;77.20;;;;;;5030371;28;20526;-50
2021/06/26 11:51:05;;;;;;;3.38;3.08;;;25.20;78.00;;;;;;5030014;28;20104;-49
2021/06/26 11:53:35;;;;;;;3.83;3.40;;;25.10;79.10;;;;;;5031596;28;20392;-49
2021/06/26 11:56:02;;;;;;;3.50;3.20;;;25.00;79.20;;;;;;5034382;28;20170;-48
2021/06/26 11:58:41;;;;;;;3.30;3.05;;;25.00;78.80;;;;;;5034241;28;20373;-51
2021/06/26 12:01:09;;;;;;;4.18;3.58;;;25.00;78.70;;;;;;5034200;28;20053;-49
2021/06/26 12:03:36;;;;;;;3.65;3.35;;;25.10;77.90;;;;;;5033513;28;20104;-51
2021/06/26 12:06:09;;;;;;;4.38;3.22;;;25.10;79.20;;;;;;5034070;28;20022;-54
2021/06/26 12:08:43;;;;;;;3.90;3.50;;;25.10;78.60;;;;;;5033983;28;20553;-50
2021/06/26 12:11:17;;;;;;;6.07;3.30;;;25.10;77.50;;;;;;5033927;28;20025;-49
2021/06/26 12:13:45;;;;;;;3.43;2.90;;;25.10;78.90;;;;;;5033414;28;20561;-49
2021/06/26 12:16:18;;;;;;;4.78;3.40;;;25.00;78.60;;;;;;5033860;28;20447;-52
2021/06/26 12:18:49;;;;;;;4.03;3.42;;;24.90;78.40;;;;;;5032751;28;20030;-51
2021/06/26 12:21:15;;;;;;;4.20;3.20;;;25.00;78.10;;;;;;5033809;28;20025;-54
2021/06/26 12:23:48;;;;;;;5.95;3.40;;;25.00;76.40;;;;;;5033180;28;20036;-51
2021/06/26 12:26:18;;;;;;;8.32;3.28;;;24.90;76.30;;;;;;5033881;28;20472;-49
2021/06/26 12:28:44;;;;;;;4.60;2.90;;;24.80;75.60;;;;;;5033613;28;20060;-53
2021/06/26 12:31:10;;;;;;;3.83;3.15;;;24.80;76.80;;;;;;5033751;28;20084;-51
2021/06/26 12:33:35;;;;;;;4.85;4.30;;;24.90;76.40;;;;;;5033226;28;20025;-51